createdAt,value
2023-01-10T00:00:00.000Z,1.47
2023-01-10T00:15:00.000Z,1.21
2023-01-10T00:30:00.000Z,1.26
2023-01-10T00:45:00.000Z,1.29
2023-01-10T01:00:00.000Z,1.21
2023-01-10T01:15:00.000Z,1.21
2023-01-10T01:30:00.000Z,1.22
2023-01-10T01:45:00.000Z,1.12
2023-01-10T02:00:00.000Z,1.04
2023-01-10T02:15:00.000Z,1.19
2023-01-10T02:30:00.000Z,1.21
2023-01-10T02:45:00.000Z,1.2
2023-01-10T03:00:00.000Z,1.25
2023-01-10T03:15:00.000Z,1.53
2023-01-10T03:30:00.000Z,1.38
2023-01-10T03:45:00.000Z,1.34
2023-01-10T04:00:00.000Z,1.21
2023-01-10T04:15:00.000Z,1.57
2023-01-10T04:30:00.000Z,1.61
2023-01-10T04:45:00.000Z,2.08
2023-01-10T05:00:00.000Z,2.21
2023-01-10T05:15:00.000Z,1.85
2023-01-10T05:30:00.000Z,4.26
2023-01-10T05:45:00.000Z,4.89
2023-01-10T06:00:00.000Z,6.24
2023-01-10T06:15:00.000Z,4.32
2023-01-10T06:30:00.000Z,5.12
2023-01-10T06:45:00.000Z,5.65
2023-01-10T07:00:00.000Z,6.33
2023-01-10T07:15:00.000Z,5.19
2023-01-10T07:30:00.000Z,4.28
2023-01-10T07:45:00.000Z,3.73
2023-01-10T08:00:00.000Z,3.36
2023-01-10T08:15:00.000Z,2.34
2023-01-10T08:30:00.000Z,4.94
2023-01-10T08:45:00.000Z,4.51
2023-01-10T09:00:00.000Z,4.93
2023-01-10T09:15:00.000Z,6.89
2023-01-10T09:30:00.000Z,9.65
2023-01-10T09:45:00.000Z,7.26
2023-01-10T10:00:00.000Z,7.51
2023-01-10T10:15:00.000Z,8.31
2023-01-10T10:30:00.000Z,7.91
2023-01-10T10:45:00.000Z,6.8
2023-01-10T11:00:00.000Z,6.29
2023-01-10T11:15:00.000Z,6.46
2023-01-10T11:30:00.000Z,6.06
2023-01-10T11:45:00.000Z,5.31
2023-01-10T12:00:00.000Z,4.69
2023-01-10T12:15:00.000Z,4.87
2023-01-10T12:30:00.000Z,6.18
2023-01-10T12:45:00.000Z,4.49
2023-01-10T13:00:00.000Z,5.11
2023-01-10T13:15:00.000Z,4.76
2023-01-10T13:30:00.000Z,5.07
2023-01-10T13:45:00.000Z,6.19
2023-01-10T14:00:00.000Z,10.85
2023-01-10T14:15:00.000Z,5.02
2023-01-10T14:30:00.000Z,4.61
2023-01-10T14:45:00.000Z,12.42
2023-01-10T15:00:00.000Z,11.78
2023-01-10T15:15:00.000Z,6.69
2023-01-10T15:30:00.000Z,7.31
2023-01-10T15:45:00.000Z,8.59
2023-01-10T16:00:00.000Z,7.78
2023-01-10T16:15:00.000Z,5.35
2023-01-10T16:30:00.000Z,7.24
2023-01-10T16:45:00.000Z,6.76
2023-01-10T17:00:00.000Z,4.79
2023-01-10T17:15:00.000Z,5.33
2023-01-10T17:30:00.000Z,9.95
2023-01-10T17:45:00.000Z,14.91
2023-01-10T18:00:00.000Z,5.18
2023-01-10T18:15:00.000Z,6.67
2023-01-10T18:30:00.000Z,6.96
2023-01-10T18:45:00.000Z,8.16
2023-01-10T19:00:00.000Z,7.62
2023-01-10T19:15:00.000Z,8.18
2023-01-10T19:30:00.000Z,11.36
2023-01-10T19:45:00.000Z,10.26
2023-01-10T20:00:00.000Z,9.26
2023-01-10T20:15:00.000Z,9.48
2023-01-10T20:30:00.000Z,7.82
2023-01-10T20:45:00.000Z,7.54
2023-01-10T21:00:00.000Z,7.48
2023-01-10T21:15:00.000Z,7.51
2023-01-10T21:30:00.000Z,7.39
2023-01-10T21:45:00.000Z,7
2023-01-10T22:00:00.000Z,6.75
2023-01-10T22:15:00.000Z,6.47
2023-01-10T22:30:00.000Z,5.54
2023-01-10T22:45:00.000Z,4.84
2023-01-10T23:00:00.000Z,5.12
2023-01-10T23:15:00.000Z,4.64
2023-01-10T23:30:00.000Z,4.6
2023-01-10T23:45:00.000Z,4.24
